Deming, NM (88030)

8:39 PM MST on February 12, 2016 (GMT -0700)
Deming Municipal | | Change Station
CLOSE
Current Station
Airport
Location: Deming,
Elevation: 4311 ft
Nearby Weather Stations

Elev 4311 ft 32.26 °N, 107.72 °W | Updated 46 minutes ago

Clear
Clear
54 °F
Feels Like 54 °F
N
5
Wind Variable Wind from SW

Today
High -- | Low -- °F
--% Chance of Precip.
Yesterday
High -- | Low -- °F
Precip. -- in
Pressure 30.19 in
Visibility 10.0 miles
Clouds Clear
Dew Point 12 °F
Humidity 19%
Rainfall 0.00 in
Snow Depth Not available.
6:56 AM 5:54 PM
Waxing Crescent, 26% visible
METAR KDMN 130253Z AUTO 23004KT 10SM CLR 12/M11 A3026 RMK AO2 SLP224 T01221111 53007 TSNO
Pressure 30.19 in
Visibility 10.0 miles
Clouds Clear
Dew Point 12 °F
Humidity 19%
Rainfall 0.00 in
Snow Depth Not available.
6:56 AM 5:54 PM
Waxing Crescent, 26% visible
METAR KDMN 130253Z AUTO 23004KT 10SM CLR 12/M11 A3026 RMK AO2 SLP224 T01221111 53007 TSNO

10-Day Weather Forecast

Almanac

Astronomy

Feb. 12, 2016 Rise Set
Actual Time
Civil Twilight
Nautical Twilight
Astronomical Twilight
Moon
Length of Visible Light
Length of Day
Tomorrow will be .
, % of the Moon is Illuminated

Today's Extremes

State Highs State Lows

Community

WunderPhotos

Upload Photos

1,892,492 photos uploaded!

WunderBlog® & News

Nearby

Air Quality

  Air Quality AQ Index Pollutant
Not available.

Snow Depth

Station Depth Elevation

Earthquake Activity

City Distance Mag. Time & Date
Minimum magnitude displayed is 2.5.

Coastal Water Temperatures

Place Temperature

Stations

Nearby Weather Stations

Station Location Temp. Windchill Dew Point Humidity Wind Precip. Elev Updated Type
                   

Watches & Warnings

There are currently no watches in effect.